createdAt,value
2018-12-01T00:01:08.438Z,968.97
2018-12-01T00:02:18.624Z,969.02
2018-12-01T00:03:28.814Z,969.04
2018-12-01T00:04:39.003Z,969.08
2018-12-01T00:05:49.335Z,969.11
2018-12-01T00:06:59.242Z,969.15
2018-12-01T00:08:09.424Z,969.14
2018-12-01T00:09:19.603Z,969.12
2018-12-01T00:10:29.788Z,969.11
2018-12-01T00:11:39.747Z,969.13
2018-12-01T00:12:49.927Z,969.13
2018-12-01T00:14:00.118Z,969.13
2018-12-01T00:15:10.300Z,969.08
2018-12-01T00:16:20.489Z,969.15
2018-12-01T00:17:30.727Z,969.11
2018-12-01T00:18:40.909Z,969.05
2018-12-01T00:19:51.093Z,969.03
2018-12-01T00:21:01.274Z,969.03
2018-12-01T00:22:11.456Z,969.02
2018-12-01T00:23:21.801Z,968.94
2018-12-01T00:24:31.983Z,968.92
2018-12-01T00:25:42.162Z,968.87
2018-12-01T00:26:52.342Z,968.87
2018-12-01T00:28:02.524Z,968.86
2018-12-01T00:29:12.802Z,968.83
2018-12-01T00:30:22.988Z,968.75
2018-12-01T00:31:33.166Z,968.77
2018-12-01T00:32:43.344Z,968.71
2018-12-01T00:33:53.547Z,968.69
2018-12-01T00:35:03.825Z,968.69
2018-12-01T00:36:14.009Z,968.63
2018-12-01T00:37:24.188Z,968.68
2018-12-01T00:38:34.367Z,968.71
2018-12-01T00:39:44.592Z,968.71
2018-12-01T00:40:54.879Z,968.75
2018-12-01T00:42:05.066Z,968.68
2018-12-01T00:43:15.245Z,968.7
2018-12-01T00:44:25.430Z,968.66
2018-12-01T00:45:35.607Z,968.61
2018-12-01T00:46:45.842Z,968.57
2018-12-01T00:47:56.025Z,968.62
2018-12-01T00:49:06.218Z,968.64
2018-12-01T00:50:16.406Z,968.55
2018-12-01T00:51:26.602Z,968.64
2018-12-01T00:52:36.887Z,968.65
2018-12-01T00:53:47.072Z,968.65
2018-12-01T00:54:57.253Z,968.7
2018-12-01T00:56:07.436Z,968.62
2018-12-01T00:57:17.621Z,968.67
2018-12-01T00:58:27.865Z,968.71
2018-12-01T00:59:38.053Z,968.81
2018-12-01T01:00:48.236Z,968.77
2018-12-01T01:01:58.420Z,968.75
2018-12-01T01:03:08.601Z,968.81
2018-12-01T01:04:18.954Z,968.78
2018-12-01T01:05:29.150Z,968.84
2018-12-01T01:06:39.069Z,968.77
2018-12-01T01:07:49.249Z,968.77
2018-12-01T01:08:59.433Z,968.72
2018-12-01T01:10:09.395Z,968.7
2018-12-01T01:11:19.575Z,968.67
2018-12-01T01:12:30.642Z,968.65
2018-12-01T01:13:40.911Z,968.71
2018-12-01T01:14:51.095Z,968.76
2018-12-01T01:16:01.327Z,968.7
2018-12-01T01:17:11.505Z,968.68
2018-12-01T01:18:21.687Z,968.69
2018-12-01T01:19:31.890Z,968.74
2018-12-01T01:20:42.074Z,968.71
2018-12-01T01:21:52.416Z,968.66
2018-12-01T01:23:02.604Z,968.72
2018-12-01T01:24:12.796Z,968.67
2018-12-01T01:25:22.978Z,968.68
2018-12-01T01:26:33.165Z,968.73
2018-12-01T01:27:43.448Z,968.72
2018-12-01T01:28:53.628Z,968.75
2018-12-01T01:30:03.812Z,968.69
2018-12-01T01:31:13.990Z,968.73
2018-12-01T01:32:24.178Z,968.68
2018-12-01T01:33:34.506Z,968.59
2018-12-01T01:34:44.687Z,968.62
2018-12-01T01:35:54.873Z,968.62
2018-12-01T01:37:05.085Z,968.59
2018-12-01T01:38:15.267Z,968.59
2018-12-01T01:39:25.501Z,968.59
2018-12-01T01:40:35.694Z,968.65
2018-12-01T01:41:45.875Z,968.59
2018-12-01T01:42:56.069Z,968.6
2018-12-01T01:44:06.254Z,968.6
2018-12-01T01:45:16.584Z,968.7
2018-12-01T01:46:26.760Z,968.62
2018-12-01T01:47:36.943Z,968.66
2018-12-01T01:48:47.140Z,968.73
2018-12-01T01:49:57.321Z,968.67
2018-12-01T01:51:07.553Z,968.72
2018-12-01T01:52:17.734Z,968.65
2018-12-01T01:53:27.914Z,968.73
2018-12-01T01:54:38.113Z,968.72
2018-12-01T01:55:48.297Z,968.76
2018-12-01T01:56:58.543Z,968.75
2018-12-01T01:58:08.734Z,968.76
2018-12-01T01:59:18.921Z,968.76
2018-12-01T02:00:29.109Z,968.78
2018-12-01T02:01:39.296Z,968.76
2018-12-01T02:02:49.644Z,968.76
2018-12-01T02:03:59.829Z,968.73
2018-12-01T02:05:10.011Z,968.74
2018-12-01T02:06:20.196Z,968.79
2018-12-01T02:07:30.381Z,968.77
2018-12-01T02:08:40.667Z,968.81
2018-12-01T02:09:50.852Z,968.8
2018-12-01T02:11:01.045Z,968.81
2018-12-01T02:12:11.229Z,968.83
2018-12-01T02:13:21.417Z,968.83
2018-12-01T02:14:31.755Z,968.84
2018-12-01T02:15:41.944Z,968.84
2018-12-01T02:16:52.129Z,968.89
2018-12-01T02:18:02.528Z,968.86
2018-12-01T02:19:12.714Z,968.87
2018-12-01T02:20:23.062Z,968.88
2018-12-01T02:21:33.249Z,968.9
2018-12-01T02:22:43.433Z,968.92
2018-12-01T02:23:53.630Z,968.86
2018-12-01T02:25:03.816Z,968.8
2018-12-01T02:26:14.102Z,968.84
2018-12-01T02:27:24.015Z,968.8
2018-12-01T02:28:34.200Z,968.84
2018-12-01T02:29:44.387Z,968.8
2018-12-01T02:30:54.580Z,968.79
2018-12-01T02:32:04.936Z,968.81
2018-12-01T02:33:15.153Z,968.81
2018-12-01T02:34:25.356Z,968.78
2018-12-01T02:35:35.562Z,968.79
2018-12-01T02:36:45.763Z,968.75
2018-12-01T02:37:56.087Z,968.75
2018-12-01T02:39:06.283Z,968.75
2018-12-01T02:40:16.468Z,968.76
2018-12-01T02:41:26.457Z,968.8
2018-12-01T02:42:36.642Z,968.8
2018-12-01T02:43:46.888Z,968.81
2018-12-01T02:44:56.802Z,968.8
2018-12-01T02:46:06.999Z,968.85
2018-12-01T02:47:17.197Z,968.82
2018-12-01T02:48:27.387Z,968.86
2018-12-01T02:49:37.670Z,968.86
2018-12-01T02:50:47.856Z,968.81
2018-12-01T02:51:58.043Z,968.93
2018-12-01T02:53:08.233Z,968.85
2018-12-01T02:54:18.414Z,968.85
2018-12-01T02:55:28.663Z,968.87
2018-12-01T02:56:38.587Z,968.81
2018-12-01T02:57:48.773Z,968.83
2018-12-01T02:58:58.975Z,968.82
2018-12-01T03:00:09.158Z,968.85
2018-12-01T03:01:19.443Z,968.81
2018-12-01T03:02:29.626Z,968.84
2018-12-01T03:03:39.847Z,968.8
2018-12-01T03:04:50.031Z,968.8
2018-12-01T03:06:00.213Z,968.78
2018-12-01T03:07:10.542Z,968.78
2018-12-01T03:08:20.720Z,968.74
2018-12-01T03:09:30.902Z,968.72
2018-12-01T03:10:41.090Z,968.74
2018-12-01T03:11:51.272Z,968.76
2018-12-01T03:13:01.506Z,968.72
2018-12-01T03:14:11.684Z,968.71
2018-12-01T03:15:21.866Z,968.68
2018-12-01T03:16:32.062Z,968.74
2018-12-01T03:17:42.244Z,968.79
2018-12-01T03:18:52.429Z,968.74
2018-12-01T03:20:02.613Z,968.73
2018-12-01T03:21:12.525Z,968.75
2018-12-01T03:22:22.721Z,968.72
2018-12-01T03:23:32.907Z,968.74
2018-12-01T03:24:43.187Z,968.74
2018-12-01T03:25:53.368Z,968.71
2018-12-01T03:27:03.546Z,968.8
2018-12-01T03:28:13.727Z,968.82
2018-12-01T03:29:23.908Z,968.81
2018-12-01T03:30:34.144Z,968.77
2018-12-01T03:31:44.416Z,968.79
2018-12-01T03:32:54.645Z,968.81
2018-12-01T03:34:04.887Z,968.78
2018-12-01T03:35:15.070Z,968.79
2018-12-01T03:36:25.414Z,968.8
2018-12-01T03:37:35.599Z,968.75
2018-12-01T03:38:45.810Z,968.82
2018-12-01T03:39:55.996Z,968.84
2018-12-01T03:41:06.175Z,968.8
2018-12-01T03:42:16.458Z,968.81
2018-12-01T03:43:26.651Z,968.78
2018-12-01T03:44:36.829Z,968.74
2018-12-01T03:45:47.007Z,968.77
2018-12-01T03:46:57.185Z,968.75
2018-12-01T03:48:07.427Z,968.73
2018-12-01T03:49:17.608Z,968.72
2018-12-01T03:50:27.810Z,968.65
2018-12-01T03:51:37.989Z,968.64
2018-12-01T03:52:48.184Z,968.66
2018-12-01T03:53:58.513Z,968.6
2018-12-01T03:55:08.694Z,968.59
2018-12-01T03:56:18.873Z,968.58
2018-12-01T03:57:29.055Z,968.6
2018-12-01T03:58:39.231Z,968.68
2018-12-01T03:59:49.460Z,968.67
2018-12-01T04:00:59.637Z,968.58
2018-12-01T04:02:09.819Z,968.66
2018-12-01T04:03:20.042Z,968.6
2018-12-01T04:04:30.233Z,968.63
2018-12-01T04:05:40.195Z,968.61
2018-12-01T04:06:50.379Z,968.54
2018-12-01T04:08:00.561Z,968.52
2018-12-01T04:09:10.736Z,968.55
2018-12-01T04:10:20.919Z,968.53
2018-12-01T04:11:31.287Z,968.5
2018-12-01T04:12:41.469Z,968.49
2018-12-01T04:13:51.648Z,968.48
2018-12-01T04:15:01.829Z,968.46
2018-12-01T04:16:12.006Z,968.39
2018-12-01T04:17:22.337Z,968.43
2018-12-01T04:18:32.516Z,968.5
2018-12-01T04:19:42.694Z,968.49
2018-12-01T04:20:52.879Z,968.47
2018-12-01T04:22:03.105Z,968.42
2018-12-01T04:23:13.388Z,968.35
2018-12-01T04:24:23.563Z,968.4
2018-12-01T04:25:33.741Z,968.41
2018-12-01T04:26:43.920Z,968.37
2018-12-01T04:27:54.098Z,968.33
2018-12-01T04:29:04.427Z,968.36
2018-12-01T04:30:14.606Z,968.4
2018-12-01T04:31:24.792Z,968.49
2018-12-01T04:32:34.971Z,968.45
2018-12-01T04:33:45.154Z,968.49
2018-12-01T04:34:55.487Z,968.48
2018-12-01T04:36:05.664Z,968.51
2018-12-01T04:37:15.843Z,968.57
2018-12-01T04:38:26.029Z,968.51
2018-12-01T04:39:36.210Z,968.54
2018-12-01T04:40:46.267Z,968.53
2018-12-01T04:41:56.446Z,968.47
2018-12-01T04:43:06.624Z,968.5
2018-12-01T04:44:16.536Z,968.52
2018-12-01T04:45:26.717Z,968.48
2018-12-01T04:46:36.951Z,968.52
2018-12-01T04:47:47.131Z,968.5
2018-12-01T04:48:57.325Z,968.53
2018-12-01T04:50:07.504Z,968.62
2018-12-01T04:51:17.691Z,968.62
2018-12-01T04:52:27.920Z,968.62
2018-12-01T04:53:38.104Z,968.68
2018-12-01T04:54:48.280Z,968.65
2018-12-01T04:55:58.461Z,968.61
2018-12-01T04:57:08.646Z,968.63
2018-12-01T04:58:18.926Z,968.63
2018-12-01T04:59:29.112Z,968.62
2018-12-01T05:00:39.295Z,968.62
2018-12-01T05:01:49.214Z,968.67
2018-12-01T05:02:59.396Z,968.68
2018-12-01T05:04:09.689Z,968.59
2018-12-01T05:05:19.885Z,968.55
2018-12-01T05:06:30.073Z,968.46
2018-12-01T05:07:40.250Z,968.64
2018-12-01T05:08:50.438Z,968.73
2018-12-01T05:10:00.731Z,968.72
2018-12-01T05:11:10.924Z,968.74
2018-12-01T05:12:21.106Z,968.8
2018-12-01T05:13:31.286Z,968.77
2018-12-01T05:14:41.475Z,968.79
2018-12-01T05:15:51.715Z,968.84
2018-12-01T05:17:01.898Z,968.88
2018-12-01T05:18:12.075Z,968.9
2018-12-01T05:19:22.251Z,968.87
2018-12-01T05:20:32.438Z,968.89
2018-12-01T05:21:42.764Z,968.89
2018-12-01T05:22:52.947Z,968.82
2018-12-01T05:24:03.130Z,968.85
2018-12-01T05:25:13.311Z,968.83
2018-12-01T05:26:23.229Z,968.82
2018-12-01T05:27:33.456Z,968.86
2018-12-01T05:28:43.650Z,968.89
2018-12-01T05:29:53.832Z,968.81
2018-12-01T05:31:04.021Z,968.84
2018-12-01T05:32:14.205Z,968.78
2018-12-01T05:33:24.175Z,968.79
2018-12-01T05:34:34.352Z,968.8
2018-12-01T05:35:44.535Z,968.81
2018-12-01T05:36:54.713Z,968.84
2018-12-01T05:38:04.895Z,968.72
2018-12-01T05:39:15.153Z,968.59
2018-12-01T05:40:25.329Z,968.59
2018-12-01T05:41:35.511Z,968.57
2018-12-01T05:42:45.696Z,968.53
2018-12-01T05:43:55.885Z,968.57
2018-12-01T05:45:06.172Z,968.55
2018-12-01T05:46:16.355Z,968.62
2018-12-01T05:47:26.539Z,968.68
2018-12-01T05:48:36.720Z,968.72
2018-12-01T05:49:46.918Z,968.78
2018-12-01T05:50:57.248Z,968.77
2018-12-01T05:52:07.442Z,968.78
2018-12-01T05:53:17.615Z,968.77
2018-12-01T05:54:27.792Z,968.75
2018-12-01T05:55:37.975Z,968.75
2018-12-01T05:56:48.206Z,968.8
2018-12-01T05:57:58.383Z,968.78
2018-12-01T05:59:08.559Z,968.72
2018-12-01T06:00:18.742Z,968.74
2018-12-01T06:01:28.925Z,968.67
2018-12-01T06:02:39.254Z,968.7
2018-12-01T06:03:49.440Z,968.63
2018-12-01T06:04:59.616Z,968.59
2018-12-01T06:06:09.797Z,968.6
2018-12-01T06:07:19.974Z,968.57
2018-12-01T06:08:30.250Z,968.6
2018-12-01T06:09:40.433Z,968.61
2018-12-01T06:10:50.624Z,968.69
2018-12-01T06:12:00.804Z,968.64
2018-12-01T06:13:10.999Z,968.57
2018-12-01T06:14:21.329Z,968.5
2018-12-01T06:15:31.517Z,968.48
2018-12-01T06:16:41.433Z,968.47
2018-12-01T06:17:51.632Z,968.48
2018-12-01T06:19:01.813Z,968.46
2018-12-01T06:20:12.044Z,968.49
2018-12-01T06:21:22.244Z,968.48
2018-12-01T06:22:32.430Z,968.4
2018-12-01T06:23:42.610Z,968.48
2018-12-01T06:24:52.794Z,968.43
2018-12-01T06:26:02.827Z,968.46
2018-12-01T06:27:13.003Z,968.42
2018-12-01T06:28:23.212Z,968.37
2018-12-01T06:29:33.404Z,968.32
2018-12-01T06:30:43.582Z,968.24
2018-12-01T06:31:53.921Z,968.28
2018-12-01T06:33:04.102Z,968.26
2018-12-01T06:34:14.291Z,968.21
2018-12-01T06:35:24.470Z,968.25
2018-12-01T06:36:34.651Z,968.24
2018-12-01T06:37:44.879Z,968.15
2018-12-01T06:38:54.795Z,968.21
2018-12-01T06:40:04.979Z,968.14
2018-12-01T06:41:15.154Z,968.2
2018-12-01T06:42:25.344Z,968.18
2018-12-01T06:43:35.626Z,968.16
2018-12-01T06:44:45.805Z,968.2
2018-12-01T06:45:55.983Z,968.26
2018-12-01T06:47:06.166Z,968.27
2018-12-01T06:48:16.348Z,968.26
2018-12-01T06:49:26.634Z,968.27
2018-12-01T06:50:36.811Z,968.32
2018-12-01T06:51:46.992Z,968.35
2018-12-01T06:52:57.173Z,968.46
2018-12-01T06:54:07.359Z,968.5
2018-12-01T06:55:17.684Z,968.53
2018-12-01T06:56:27.860Z,968.63
2018-12-01T06:57:38.049Z,968.64
2018-12-01T06:58:48.225Z,968.63
2018-12-01T06:59:58.414Z,968.74
2018-12-01T07:01:08.696Z,968.77
2018-12-01T07:02:18.876Z,968.82
2018-12-01T07:03:29.052Z,968.82
2018-12-01T07:04:39.239Z,968.81
2018-12-01T07:05:49.418Z,968.82
2018-12-01T07:06:59.751Z,968.79
2018-12-01T07:08:09.665Z,968.86
2018-12-01T07:09:19.852Z,968.84
2018-12-01T07:10:30.034Z,968.88
2018-12-01T07:11:40.223Z,968.92
2018-12-01T07:12:50.560Z,968.87
2018-12-01T07:14:00.752Z,968.91
2018-12-01T07:15:10.667Z,968.86
2018-12-01T07:16:20.578Z,968.87
2018-12-01T07:17:30.757Z,968.91
2018-12-01T07:18:40.986Z,968.88
2018-12-01T07:19:51.180Z,968.93
2018-12-01T07:21:01.363Z,968.87
2018-12-01T07:22:11.551Z,968.9
2018-12-01T07:23:21.728Z,968.87
2018-12-01T07:24:32.060Z,968.91
2018-12-01T07:25:42.239Z,968.9
2018-12-01T07:26:52.418Z,968.87
2018-12-01T07:28:02.609Z,968.84
2018-12-01T07:29:12.788Z,968.91
2018-12-01T07:30:23.066Z,968.93
2018-12-01T07:31:33.244Z,968.85
2018-12-01T07:32:43.428Z,968.78
2018-12-01T07:33:53.627Z,968.82
2018-12-01T07:35:03.815Z,968.79
2018-12-01T07:36:14.101Z,968.81
2018-12-01T07:37:24.285Z,968.82
2018-12-01T07:38:34.468Z,968.8
2018-12-01T07:39:44.384Z,968.8
2018-12-01T07:40:54.570Z,968.9
2018-12-01T07:42:04.952Z,968.9
2018-12-01T07:43:15.127Z,968.91
2018-12-01T07:44:25.305Z,968.96
2018-12-01T07:45:35.490Z,968.88
2018-12-01T07:46:45.674Z,968.91
2018-12-01T07:47:55.901Z,968.88
2018-12-01T07:49:06.090Z,968.85
2018-12-01T07:50:16.274Z,968.87
2018-12-01T07:51:27.208Z,968.91
2018-12-01T07:52:37.383Z,968.91
2018-12-01T07:53:47.665Z,968.93
2018-12-01T07:54:57.844Z,968.93
2018-12-01T07:56:08.029Z,968.98
2018-12-01T07:57:18.209Z,968.98
2018-12-01T07:58:28.388Z,969.01
2018-12-01T07:59:38.717Z,968.99
2018-12-01T08:00:48.906Z,969.05
2018-12-01T08:01:58.818Z,968.99
2018-12-01T08:03:09.002Z,968.94
2018-12-01T08:04:19.184Z,968.99
2018-12-01T08:05:29.464Z,969.01
2018-12-01T08:06:39.372Z,969.01
2018-12-01T08:07:49.555Z,969.07
2018-12-01T08:08:59.734Z,969.07
2018-12-01T08:10:09.920Z,969.08
2018-12-01T08:11:20.251Z,969.05
2018-12-01T08:12:30.434Z,969.11
2018-12-01T08:13:40.612Z,969.1
2018-12-01T08:14:50.796Z,969.09
2018-12-01T08:16:00.974Z,969.06
2018-12-01T08:17:11.310Z,969.06
2018-12-01T08:18:21.544Z,969.11
2018-12-01T08:19:31.722Z,969.12
2018-12-01T08:20:41.908Z,969.17
2018-12-01T08:21:53.089Z,969.17
2018-12-01T08:23:03.375Z,969.23
2018-12-01T08:24:13.553Z,969.23
2018-12-01T08:25:23.732Z,969.19
2018-12-01T08:26:33.918Z,969.21
2018-12-01T08:27:44.098Z,969.23
2018-12-01T08:28:54.439Z,969.2
2018-12-01T08:30:04.617Z,969.15
2018-12-01T08:31:14.795Z,969.14
2018-12-01T08:32:24.981Z,969.11
2018-12-01T08:33:35.162Z,969.19
2018-12-01T08:34:45.398Z,969.18
2018-12-01T08:35:55.575Z,969.18
2018-12-01T08:37:05.783Z,969.16
2018-12-01T08:38:15.970Z,969.14
2018-12-01T08:39:26.159Z,969.11
2018-12-01T08:40:36.385Z,969.07
2018-12-01T08:41:46.573Z,969.06
2018-12-01T08:42:56.753Z,969.05
2018-12-01T08:44:06.936Z,968.97
2018-12-01T08:45:17.127Z,968.98
2018-12-01T08:46:27.457Z,969.02
2018-12-01T08:47:37.640Z,969.03
2018-12-01T08:48:47.838Z,969.03
2018-12-01T08:49:58.018Z,969.02
2018-12-01T08:51:08.199Z,969.04
2018-12-01T08:52:18.533Z,969.03
2018-12-01T08:53:28.710Z,969.06
2018-12-01T08:54:38.889Z,969.05
2018-12-01T08:55:49.075Z,969.05
2018-12-01T08:56:59.255Z,969
2018-12-01T08:58:09.586Z,969.02
2018-12-01T08:59:19.771Z,969.04
2018-12-01T09:00:29.951Z,969.08
2018-12-01T09:01:40.132Z,969.15
2018-12-01T09:02:50.317Z,969.19
2018-12-01T09:04:00.661Z,969.08
2018-12-01T09:05:10.847Z,969.13
2018-12-01T09:06:21.030Z,969.14
2018-12-01T09:07:31.210Z,969.08
2018-12-01T09:08:41.391Z,969.07
2018-12-01T09:09:51.622Z,969.14
2018-12-01T09:11:01.531Z,969.17
2018-12-01T09:12:11.718Z,969.24
2018-12-01T09:13:22.028Z,969.28
2018-12-01T09:14:32.213Z,969.23
2018-12-01T09:15:42.446Z,969.27
2018-12-01T09:16:52.628Z,969.3
2018-12-01T09:18:02.811Z,969.34
2018-12-01T09:19:12.996Z,969.36
2018-12-01T09:20:23.176Z,969.43
2018-12-01T09:21:33.457Z,969.4
2018-12-01T09:22:43.641Z,969.48
2018-12-01T09:23:53.827Z,969.44
2018-12-01T09:25:04.012Z,969.41
2018-12-01T09:26:14.195Z,969.49
2018-12-01T09:27:24.529Z,969.47
2018-12-01T09:28:34.446Z,969.4
2018-12-01T09:29:44.636Z,969.45
2018-12-01T09:30:54.822Z,969.46
2018-12-01T09:32:05.003Z,969.35
2018-12-01T09:33:15.233Z,969.36
2018-12-01T09:34:25.414Z,969.38
2018-12-01T09:35:35.595Z,969.38
2018-12-01T09:36:45.779Z,969.37
2018-12-01T09:37:55.968Z,969.35
2018-12-01T09:39:06.304Z,969.4
2018-12-01T09:40:16.491Z,969.41
2018-12-01T09:41:26.676Z,969.38
2018-12-01T09:42:36.857Z,969.36
2018-12-01T09:43:47.042Z,969.43
2018-12-01T09:44:57.272Z,969.46
2018-12-01T09:46:07.450Z,969.44
2018-12-01T09:47:17.634Z,969.44
2018-12-01T09:48:27.816Z,969.43
2018-12-01T09:49:37.995Z,969.4
2018-12-01T09:50:48.283Z,969.43
2018-12-01T09:51:58.498Z,969.42
2018-12-01T09:53:08.683Z,969.45
2018-12-01T09:54:18.866Z,969.43
2018-12-01T09:55:29.049Z,969.39
2018-12-01T09:56:39.018Z,969.36
2018-12-01T09:57:49.213Z,969.38
2018-12-01T09:58:59.399Z,969.36
2018-12-01T10:00:09.586Z,969.38
2018-12-01T10:01:19.770Z,969.37
2018-12-01T10:02:30.011Z,969.28
2018-12-01T10:03:40.201Z,969.28
2018-12-01T10:04:50.390Z,969.28
2018-12-01T10:06:00.581Z,969.35
2018-12-01T10:07:10.762Z,969.32
2018-12-01T10:08:20.833Z,969.34
2018-12-01T10:09:31.022Z,969.39
2018-12-01T10:10:41.204Z,969.37
2018-12-01T10:11:51.393Z,969.37
2018-12-01T10:13:01.572Z,969.35
2018-12-01T10:14:11.642Z,969.38
2018-12-01T10:15:21.818Z,969.34
2018-12-01T10:16:32.002Z,969.4
2018-12-01T10:17:42.215Z,969.36
2018-12-01T10:18:56.431Z,969.39
2018-12-01T10:20:06.775Z,969.34
2018-12-01T10:21:16.960Z,969.33
2018-12-01T10:22:27.164Z,969.31
2018-12-01T10:23:37.352Z,969.31
2018-12-01T10:24:47.538Z,969.3
2018-12-01T10:25:57.826Z,969.28
2018-12-01T10:27:08.064Z,969.3
2018-12-01T10:28:18.245Z,969.24
2018-12-01T10:29:28.429Z,969.25
2018-12-01T10:30:39.354Z,969.26
2018-12-01T10:31:49.635Z,969.27
2018-12-01T10:32:59.823Z,969.22
2018-12-01T10:34:10.005Z,969.25
2018-12-01T10:35:20.188Z,969.2
2018-12-01T10:36:30.375Z,969.31
2018-12-01T10:37:40.609Z,969.28
2018-12-01T10:38:50.786Z,969.26
2018-12-01T10:40:06.592Z,969.29
2018-12-01T10:41:16.789Z,969.31
2018-12-01T10:42:26.969Z,969.3
2018-12-01T10:43:37.254Z,969.23
2018-12-01T10:44:47.446Z,969.33
2018-12-01T10:45:58.145Z,969.26
2018-12-01T10:47:08.373Z,969.27
2018-12-01T10:48:18.561Z,969.22
2018-12-01T10:49:28.744Z,969.26
2018-12-01T10:50:38.924Z,969.23
2018-12-01T10:51:49.106Z,969.22
2018-12-01T10:52:59.291Z,969.2
2018-12-01T10:54:09.471Z,969.29
2018-12-01T10:55:19.748Z,969.19
2018-12-01T10:56:29.927Z,969.23
2018-12-01T10:57:39.860Z,969.18
2018-12-01T10:58:50.042Z,969.19
2018-12-01T11:00:00.225Z,969.14
2018-12-01T11:01:10.509Z,969.13
2018-12-01T11:02:20.700Z,969.12
2018-12-01T11:03:30.881Z,969.09
2018-12-01T11:04:41.064Z,969.07
2018-12-01T11:05:51.246Z,969.02
2018-12-01T11:07:01.528Z,969.05
2018-12-01T11:08:11.709Z,969.07
2018-12-01T11:09:21.887Z,969.07
2018-12-01T11:10:32.065Z,969.04
2018-12-01T11:11:42.266Z,969.03
2018-12-01T11:12:52.460Z,969
2018-12-01T11:14:02.642Z,968.98
2018-12-01T11:15:12.560Z,968.94
2018-12-01T11:16:22.742Z,968.88
2018-12-01T11:17:32.926Z,968.82
2018-12-01T11:18:43.258Z,968.82
2018-12-01T11:19:53.443Z,968.78
2018-12-01T11:21:03.630Z,968.8
2018-12-01T11:22:13.816Z,968.76
2018-12-01T11:23:23.998Z,968.76
2018-12-01T11:24:34.187Z,968.84
2018-12-01T11:25:44.368Z,968.91
2018-12-01T11:26:54.560Z,968.94
2018-12-01T11:28:04.747Z,968.95
2018-12-01T11:29:14.931Z,968.96
2018-12-01T11:30:24.847Z,969
2018-12-01T11:31:35.039Z,968.97
2018-12-01T11:32:44.960Z,969.03
2018-12-01T11:33:55.148Z,968.98
2018-12-01T11:35:05.332Z,969.07
2018-12-01T11:36:15.510Z,969.07
2018-12-01T11:37:25.695Z,969.06
2018-12-01T11:38:35.883Z,969.11
2018-12-01T11:39:46.066Z,969.21
2018-12-01T11:40:56.253Z,969.24
2018-12-01T11:42:06.271Z,969.27
2018-12-01T11:43:16.459Z,969.28
2018-12-01T11:44:26.640Z,969.38
2018-12-01T11:45:36.823Z,969.38
2018-12-01T11:46:47.020Z,969.36
2018-12-01T11:47:57.306Z,969.44
2018-12-01T11:49:07.543Z,969.42
2018-12-01T11:50:17.461Z,969.46
2018-12-01T11:51:27.691Z,969.38
2018-12-01T11:52:37.876Z,969.38
2018-12-01T11:53:48.067Z,969.36
2018-12-01T11:54:58.254Z,969.41
2018-12-01T11:56:08.439Z,969.52
2018-12-01T11:57:18.625Z,969.51
2018-12-01T11:58:28.815Z,969.43
2018-12-01T11:59:39.103Z,969.47
2018-12-01T12:00:49.290Z,969.45
2018-12-01T12:02:00.415Z,969.52
2018-12-01T12:03:10.904Z,969.45
2018-12-01T12:04:21.096Z,969.47
2018-12-01T12:05:31.331Z,969.45
2018-12-01T12:06:41.519Z,969.48
2018-12-01T12:07:51.703Z,969.45
2018-12-01T12:09:01.891Z,969.52
2018-12-01T12:10:12.074Z,969.51
2018-12-01T12:11:22.311Z,969.52
2018-12-01T12:12:32.502Z,969.55
2018-12-01T12:13:42.690Z,969.56
2018-12-01T12:14:52.877Z,969.56
2018-12-01T12:16:03.065Z,969.51
2018-12-01T12:17:13.298Z,969.5
2018-12-01T12:18:23.484Z,969.45
2018-12-01T12:19:34.349Z,969.51
2018-12-01T12:20:44.970Z,969.5
2018-12-01T12:21:55.166Z,969.45
2018-12-01T12:23:05.450Z,969.44
2018-12-01T12:24:15.363Z,969.48
2018-12-01T12:25:25.553Z,969.49
2018-12-01T12:26:35.745Z,969.45
2018-12-01T12:27:45.933Z,969.44
2018-12-01T12:28:55.952Z,969.36
2018-12-01T12:30:06.142Z,969.38
2018-12-01T12:31:16.329Z,969.43
2018-12-01T12:32:26.515Z,969.4
2018-12-01T12:33:36.433Z,969.46
2018-12-01T12:34:46.766Z,969.47
2018-12-01T12:35:56.957Z,969.46
2018-12-01T12:37:07.147Z,969.43
2018-12-01T12:38:17.339Z,969.48
2018-12-01T12:39:27.527Z,969.41
2018-12-01T12:40:37.810Z,969.5
2018-12-01T12:41:47.994Z,969.51
2018-12-01T12:42:58.173Z,969.49
2018-12-01T12:44:08.384Z,969.51
2018-12-01T12:45:18.297Z,969.52
2018-12-01T12:46:28.487Z,969.49
2018-12-01T12:47:39.421Z,969.47
2018-12-01T12:48:49.617Z,969.46
2018-12-01T12:49:59.808Z,969.43
2018-12-01T12:51:09.988Z,969.38
2018-12-01T12:52:20.285Z,969.34
2018-12-01T12:53:30.464Z,969.39
2018-12-01T12:54:40.378Z,969.42
2018-12-01T12:55:50.559Z,969.46
2018-12-01T12:57:00.477Z,969.4
2018-12-01T12:58:10.776Z,969.36
2018-12-01T12:59:20.958Z,969.33
2018-12-01T13:00:31.145Z,969.32
2018-12-01T13:01:42.003Z,969.3
2018-12-01T13:02:52.188Z,969.37
2018-12-01T13:04:02.473Z,969.41
2018-12-01T13:05:12.655Z,969.43
2018-12-01T13:06:22.579Z,969.45
2018-12-01T13:07:32.761Z,969.54
2018-12-01T13:08:42.938Z,969.58
2018-12-01T13:09:53.127Z,969.56
2018-12-01T13:11:03.314Z,969.56
2018-12-01T13:12:13.497Z,969.58
2018-12-01T13:13:23.682Z,969.59
2018-12-01T13:14:33.862Z,969.63
2018-12-01T13:15:44.150Z,969.59
2018-12-01T13:16:54.066Z,969.61
2018-12-01T13:18:04.250Z,969.63
2018-12-01T13:19:14.434Z,969.63
2018-12-01T13:20:24.614Z,969.61
2018-12-01T13:21:34.938Z,969.64
2018-12-01T13:22:45.122Z,969.7
2018-12-01T13:23:55.300Z,969.63
2018-12-01T13:25:05.486Z,969.67
2018-12-01T13:26:15.669Z,969.68
2018-12-01T13:27:25.852Z,969.76
2018-12-01T13:28:36.037Z,969.73
2018-12-01T13:29:46.217Z,969.79
2018-12-01T13:30:56.400Z,969.73
2018-12-01T13:32:06.580Z,969.75
2018-12-01T13:33:16.763Z,969.76
2018-12-01T13:34:27.022Z,969.81
2018-12-01T13:35:37.234Z,969.81
2018-12-01T13:36:47.418Z,969.86
2018-12-01T13:37:57.604Z,969.89
2018-12-01T13:39:08.391Z,969.94
2018-12-01T13:40:18.579Z,969.93
2018-12-01T13:41:28.761Z,969.94
2018-12-01T13:42:38.946Z,969.96
2018-12-01T13:43:48.863Z,969.95
2018-12-01T13:44:59.046Z,969.99
2018-12-01T13:46:09.229Z,969.96
2018-12-01T13:47:19.415Z,969.95
2018-12-01T13:48:29.596Z,969.96
2018-12-01T13:49:39.779Z,969.94
2018-12-01T13:50:49.964Z,969.92
2018-12-01T13:52:00.609Z,969.92
2018-12-01T13:53:10.826Z,969.91
2018-12-01T13:54:21.009Z,969.9
2018-12-01T13:55:31.189Z,969.98
2018-12-01T13:56:41.521Z,969.96
2018-12-01T13:57:51.719Z,969.99
2018-12-01T13:59:01.900Z,969.95
2018-12-01T14:00:12.084Z,969.99
2018-12-01T14:01:22.265Z,969.95
2018-12-01T14:02:32.446Z,970.01
2018-12-01T14:03:42.635Z,969.95
2018-12-01T14:04:52.816Z,969.97
2018-12-01T14:06:02.998Z,969.97
2018-12-01T14:07:13.176Z,969.96
2018-12-01T14:08:23.360Z,969.99
2018-12-01T14:09:33.556Z,969.97
2018-12-01T14:10:43.742Z,969.99
2018-12-01T14:11:53.946Z,969.97
2018-12-01T14:13:04.124Z,969.96
2018-12-01T14:14:14.416Z,969.97
2018-12-01T14:15:24.596Z,969.94
2018-12-01T14:16:34.773Z,969.95
2018-12-01T14:17:45.780Z,969.95
2018-12-01T14:18:55.974Z,969.96
2018-12-01T14:20:06.259Z,969.99
2018-12-01T14:21:16.452Z,970.01
2018-12-01T14:22:26.360Z,969.97
2018-12-01T14:23:36.542Z,970.04
2018-12-01T14:24:46.729Z,970.04
2018-12-01T14:25:57.065Z,970.05
2018-12-01T14:27:07.263Z,970.05
2018-12-01T14:28:17.456Z,970.08
2018-12-01T14:29:27.636Z,969.98
2018-12-01T14:30:37.848Z,970.04
2018-12-01T14:31:48.136Z,970.01
2018-12-01T14:32:58.313Z,969.99
2018-12-01T14:34:08.502Z,969.97
2018-12-01T14:35:18.682Z,969.98
2018-12-01T14:36:28.912Z,969.97
2018-12-01T14:37:39.091Z,969.99
2018-12-01T14:38:49.277Z,970
2018-12-01T14:39:59.456Z,969.98